Time,TemperatureF,DewpointF,PressureIn,WindDirection,WindDirectionDegrees,WindSpeedMPH,WindSpeedGustMPH,Humidity,HourlyPrecipIn,Conditions,Clouds,dailyrainin,SoftwareType,DateUTC
2013-02-25 00:00:00,30.2,16.7,30.08,WNW,293,0.2,1.1,57,0.00,,,0.00,WUHU216HW,2013-02-25 05:00:00,
2013-02-25 00:05:00,30.2,17.2,30.08,WNW,293,0.4,0.4,58,0.00,,,0.00,WUHU216HW,2013-02-25 05:05:00,
2013-02-25 01:00:00,29.2,17.4,30.09,NNW,338,1.1,1.1,61,0.00,,,0.00,WUHU216HW,2013-02-25 06:00:00,
2013-02-25 01:05:00,29.2,17.4,30.09,NNW,338,1.1,1.1,61,0.00,,,0.00,WUHU216HW,2013-02-25 06:05:00,
2013-02-25 02:00:00,27.9,16.6,30.10,West,270,0.0,0.0,62,0.00,,,0.00,WUHU216HW,2013-02-25 07:00:00,
2013-02-25 02:05:00,27.9,16.6,30.10,West,270,0.0,0.0,62,0.00,,,0.00,WUHU216HW,2013-02-25 07:05:00,
2013-02-25 03:00:00,27.7,17.5,30.09,NNW,338,0.0,0.0,65,0.00,,,0.00,WUHU216HW,2013-02-25 08:00:00,
2013-02-25 03:05:00,27.7,17.5,30.09,NNW,338,0.0,0.0,65,0.00,,,0.00,WUHU216HW,2013-02-25 08:05:00,
2013-02-25 05:00:00,26.5,18.3,30.10,NNW,338,0.4,0.4,71,0.00,,,0.00,WUHU216HW,2013-02-25 10:00:00,
2013-02-25 05:05:00,26.5,18.3,30.10,NNW,338,0.4,0.4,71,0.00,,,0.00,WUHU216HW,2013-02-25 10:05:00,
2013-02-25 06:00:00,26.8,17.6,30.13,WSW,248,0.0,0.0,68,0.00,,,0.00,WUHU216HW,2013-02-25 11:00:00,
2013-02-25 06:05:00,26.8,17.6,30.13,WSW,248,0.0,0.0,68,0.00,,,0.00,WUHU216HW,2013-02-25 11:05:00,
2013-02-25 08:00:00,27.2,19.4,30.15,NW,315,0.4,0.4,72,0.00,,,0.00,WUHU216HW,2013-02-25 13:00:00,
2013-02-25 08:05:00,27.2,19.4,30.15,NW,315,0.4,0.4,72,0.00,,,0.00,WUHU216HW,2013-02-25 13:05:00,
2013-02-25 09:00:00,33.5,20.7,30.15,NNW,338,0.9,0.9,59,0.00,,,0.00,WUHU216HW,2013-02-25 14:00:00,
2013-02-25 09:05:00,33.5,20.7,30.15,NNW,338,0.9,0.9,59,0.00,,,0.00,WUHU216HW,2013-02-25 14:05:00,
2013-02-25 10:00:00,36.7,21.2,30.16,North,0,3.4,3.4,53,0.00,,,0.00,WUHU216HW,2013-02-25 15:00:00,
2013-02-25 10:05:00,37.1,22.0,30.16,South,180,0.4,4.3,54,0.00,,,0.00,WUHU216HW,2013-02-25 15:05:00,
2013-02-25 10:10:00,37.6,22.4,30.16,NE,45,1.8,5.4,54,0.00,,,0.00,WUHU216HW,2013-02-25 15:10:00,
2013-02-25 10:15:00,38.3,23.5,30.17,NNE,23,3.4,5.4,55,0.00,,,0.00,WUHU216HW,2013-02-25 15:15:00,
2013-02-25 10:20:00,38.5,20.4,30.16,SW,225,2.7,4.7,48,0.00,,,0.00,WUHU216HW,2013-02-25 15:20:00,
2013-02-25 10:25:00,38.2,21.6,30.16,SW,225,0.0,4.7,51,0.00,,,0.00,WUHU216HW,2013-02-25 15:25:00,
2013-02-25 10:30:00,38.7,22.5,30.16,NNE,23,0.0,2.0,52,0.00,,,0.00,WUHU216HW,2013-02-25 15:30:00,
2013-02-25 10:35:00,39.1,21.4,30.16,NW,315,2.5,2.5,49,0.00,,,0.00,WUHU216HW,2013-02-25 15:35:00,
2013-02-25 10:40:00,39.1,21.0,30.16,West,270,3.1,3.1,48,0.00,,,0.00,WUHU216HW,2013-02-25 15:40:00,
2013-02-25 10:45:00,38.7,21.2,30.16,West,270,1.6,3.1,49,0.00,,,0.00,WUHU216HW,2013-02-25 15:45:00,
2013-02-25 10:50:00,38.9,20.8,30.16,North,0,3.1,3.4,48,0.00,,,0.00,WUHU216HW,2013-02-25 15:50:00,
2013-02-25 10:55:00,39.2,22.1,30.16,North,0,1.6,3.6,50,0.00,,,0.00,WUHU216HW,2013-02-25 15:55:00,
2013-02-25 11:00:00,40.1,23.4,30.16,ENE,68,1.8,3.6,51,0.00,,,0.00,WUHU216HW,2013-02-25 16:00:00,
2013-02-25 11:05:00,40.7,23.0,30.16,NE,45,2.5,4.0,49,0.00,,,0.00,WUHU216HW,2013-02-25 16:05:00,
2013-02-25 11:10:00,41.2,23.4,30.16,SSW,203,1.3,4.0,49,0.00,,,0.00,WUHU216HW,2013-02-25 16:10:00,
2013-02-25 11:15:00,41.9,24.1,30.16,SSE,158,1.1,1.8,49,0.00,,,0.00,WUHU216HW,2013-02-25 16:15:00,
2013-02-25 11:20:00,42.3,21.8,30.16,NNE,23,2.5,3.4,44,0.00,,,0.00,WUHU216HW,2013-02-25 16:20:00,
2013-02-25 11:25:00,41.9,21.5,30.16,North,0,0.4,3.4,44,0.00,,,0.00,WUHU216HW,2013-02-25 16:25:00,
2013-02-25 11:30:00,41.8,22.9,30.16,North,0,2.0,2.2,47,0.00,,,0.00,WUHU216HW,2013-02-25 16:30:00,
2013-02-25 11:35:00,42.3,23.4,30.16,NNE,23,4.3,4.3,47,0.00,,,0.00,WUHU216HW,2013-02-25 16:35:00,
2013-02-25 11:40:00,42.8,23.4,30.16,East,90,1.1,4.3,46,0.00,,,0.00,WUHU216HW,2013-02-25 16:40:00,
2013-02-25 11:45:00,42.8,23.4,30.15,NNE,23,2.7,4.0,46,0.00,,,0.00,WUHU216HW,2013-02-25 16:45:00,
2013-02-25 11:50:00,43.6,24.6,30.14,ENE,68,4.0,4.5,47,0.00,,,0.00,WUHU216HW,2013-02-25 16:50:00,
2013-02-25 11:55:00,44.3,24.7,30.15,SSE,158,0.9,4.5,46,0.00,,,0.00,WUHU216HW,2013-02-25 16:55:00,
2013-02-25 12:00:00,45.0,25.4,30.15,NNE,23,4.7,4.7,46,0.00,,,0.00,WUHU216HW,2013-02-25 17:00:00,
2013-02-25 12:05:00,45.4,25.1,30.15,NNE,23,4.0,5.4,45,0.00,,,0.00,WUHU216HW,2013-02-25 17:05:00,
2013-02-25 12:10:00,45.5,24.8,30.14,NNE,23,2.5,5.4,44,0.00,,,0.00,WUHU216HW,2013-02-25 17:10:00,
2013-02-25 12:15:00,45.0,23.8,30.14,North,0,1.3,3.8,43,0.00,,,0.00,WUHU216HW,2013-02-25 17:15:00,
2013-02-25 12:20:00,45.5,24.8,30.15,SSE,158,4.0,4.0,44,0.00,,,0.00,WUHU216HW,2013-02-25 17:20:00,
2013-02-25 12:25:00,45.0,24.3,30.15,SE,135,0.2,4.0,44,0.00,,,0.00,WUHU216HW,2013-02-25 17:25:00,
2013-02-25 12:30:00,45.5,24.2,30.15,SSE,158,0.4,4.7,43,0.00,,,0.00,WUHU216HW,2013-02-25 17:30:00,
2013-02-25 12:35:00,45.7,24.4,30.15,NNE,23,1.1,4.7,43,0.00,,,0.00,WUHU216HW,2013-02-25 17:35:00,
2013-02-25 12:40:00,46.4,25.6,30.14,North,0,2.2,2.9,44,0.00,,,0.00,WUHU216HW,2013-02-25 17:40:00,
2013-02-25 12:45:00,46.4,22.1,30.15,WNW,293,1.1,3.4,38,0.00,,,0.00,WUHU216HW,2013-02-25 17:45:00,
2013-02-25 12:50:00,45.9,25.1,30.15,ESE,113,1.1,3.4,44,0.00,,,0.00,WUHU216HW,2013-02-25 17:50:00,
2013-02-25 12:55:00,46.4,22.8,30.14,North,0,1.6,3.8,39,0.00,,,0.00,WUHU216HW,2013-02-25 17:55:00,
2013-02-25 13:00:00,46.3,24.8,30.14,ENE,68,1.6,3.8,43,0.00,,,0.00,WUHU216HW,2013-02-25 18:00:00,
2013-02-25 13:05:00,46.8,25.4,30.14,North,0,1.3,4.0,43,0.00,,,0.00,WUHU216HW,2013-02-25 18:05:00,
2013-02-25 13:10:00,47.2,22.7,30.13,North,0,4.7,5.1,38,0.00,,,0.00,WUHU216HW,2013-02-25 18:10:00,
2013-02-25 13:15:00,47.5,26.0,30.13,North,0,1.3,5.1,43,0.00,,,0.00,WUHU216HW,2013-02-25 18:15:00,
2013-02-25 13:20:00,46.8,23.0,30.13,West,270,1.6,3.6,39,0.00,,,0.00,WUHU216HW,2013-02-25 18:20:00,
2013-02-25 13:25:00,45.5,22.0,30.12,WNW,293,2.5,2.5,39,0.00,,,0.00,WUHU216HW,2013-02-25 18:25:00,
2013-02-25 13:30:00,45.2,23.3,30.12,North,0,0.0,2.5,42,0.00,,,0.00,WUHU216HW,2013-02-25 18:30:00,
2013-02-25 13:35:00,46.4,23.4,30.11,ENE,68,2.2,2.5,40,0.00,,,0.00,WUHU216HW,2013-02-25 18:35:00,
2013-02-25 13:40:00,47.2,24.0,30.12,SSE,158,2.5,2.5,40,0.00,,,0.00,WUHU216HW,2013-02-25 18:40:00,
2013-02-25 13:45:00,48.1,25.4,30.12,ESE,113,1.3,6.9,41,0.00,,,0.00,WUHU216HW,2013-02-25 18:45:00,
2013-02-25 13:50:00,48.4,24.5,30.12,SSE,158,2.2,6.9,39,0.00,,,0.00,WUHU216HW,2013-02-25 18:50:00,
2013-02-25 13:55:00,48.4,24.5,30.11,NE,45,1.1,4.0,39,0.00,,,0.00,WUHU216HW,2013-02-25 18:55:00,
2013-02-25 14:00:00,46.8,22.4,30.11,North,0,1.8,4.0,38,0.00,,,0.00,WUHU216HW,2013-02-25 19:00:00,
2013-02-25 14:05:00,47.2,25.1,30.11,ENE,68,2.5,2.5,42,0.00,,,0.00,WUHU216HW,2013-02-25 19:05:00,
2013-02-25 14:10:00,48.2,25.6,30.11,East,90,2.5,2.5,41,0.00,,,0.00,WUHU216HW,2013-02-25 19:10:00,
2013-02-25 14:15:00,48.6,25.9,30.10,NNE,23,1.6,3.4,41,0.00,,,0.00,WUHU216HW,2013-02-25 19:15:00,
2013-02-25 14:20:00,49.3,26.0,30.10,NNE,23,3.4,3.4,40,0.00,,,0.00,WUHU216HW,2013-02-25 19:20:00,
2013-02-25 14:25:00,49.3,26.0,30.10,SE,135,1.8,4.0,40,0.00,,,0.00,WUHU216HW,2013-02-25 19:25:00,
2013-02-25 14:30:00,49.5,25.5,30.10,North,0,2.0,5.8,39,0.00,,,0.00,WUHU216HW,2013-02-25 19:30:00,
2013-02-25 14:35:00,49.3,25.3,30.10,SSE,158,1.8,5.8,39,0.00,,,0.00,WUHU216HW,2013-02-25 19:35:00,
2013-02-25 14:40:00,49.1,24.5,30.10,NE,45,1.1,1.8,38,0.00,,,0.00,WUHU216HW,2013-02-25 19:40:00,
2013-02-25 14:45:00,48.8,24.9,30.10,NE,45,1.8,2.5,39,0.00,,,0.00,WUHU216HW,2013-02-25 19:45:00,
2013-02-25 14:50:00,49.0,25.7,30.10,NNE,23,1.8,3.4,40,0.00,,,0.00,WUHU216HW,2013-02-25 19:50:00,
2013-02-25 14:55:00,48.6,25.4,30.10,North,0,0.0,3.4,40,0.00,,,0.00,WUHU216HW,2013-02-25 19:55:00,
2013-02-25 15:00:00,48.8,24.9,30.10,SSE,158,1.6,1.6,39,0.00,,,0.00,WUHU216HW,2013-02-25 20:00:00,
2013-02-25 15:05:00,48.6,24.0,30.10,SSE,158,1.6,3.1,38,0.00,,,0.00,WUHU216HW,2013-02-25 20:05:00,
2013-02-25 15:10:00,49.0,25.7,30.10,SW,225,2.7,3.1,40,0.00,,,0.00,WUHU216HW,2013-02-25 20:10:00,
2013-02-25 15:15:00,49.3,24.7,30.10,SSW,203,2.7,2.9,38,0.00,,,0.00,WUHU216HW,2013-02-25 20:15:00,
2013-02-25 15:20:00,49.3,24.7,30.10,South,180,4.9,4.9,38,0.00,,,0.00,WUHU216HW,2013-02-25 20:20:00,
2013-02-25 15:25:00,49.0,24.3,30.10,North,0,0.0,4.9,38,0.00,,,0.00,WUHU216HW,2013-02-25 20:25:00,
2013-02-25 15:30:00,49.1,24.5,30.10,SSW,203,2.5,4.9,38,0.00,,,0.00,WUHU216HW,2013-02-25 20:30:00,
2013-02-25 15:35:00,49.1,24.5,30.10,SSW,203,2.9,2.9,38,0.00,,,0.00,WUHU216HW,2013-02-25 20:35:00,
2013-02-25 15:40:00,49.0,24.3,30.10,South,180,1.1,3.1,38,0.00,,,0.00,WUHU216HW,2013-02-25 20:40:00,
2013-02-25 15:45:00,49.3,24.7,30.10,North,0,0.0,3.1,38,0.00,,,0.00,WUHU216HW,2013-02-25 20:45:00,
2013-02-25 15:50:00,49.3,24.7,30.10,North,0,0.0,1.1,38,0.00,,,0.00,WUHU216HW,2013-02-25 20:50:00,
2013-02-25 15:55:00,49.0,24.3,30.10,South,180,0.4,2.2,38,0.00,,,0.00,WUHU216HW,2013-02-25 20:55:00,
2013-02-25 16:00:00,48.6,23.3,30.10,WNW,293,0.9,2.2,37,0.00,,,0.00,WUHU216HW,2013-02-25 21:00:00,
2013-02-25 16:05:00,47.3,22.2,30.10,North,0,0.0,0.9,37,0.00,,,0.00,WUHU216HW,2013-02-25 21:05:00,
2013-02-25 16:10:00,47.2,23.4,30.10,North,0,0.0,0.9,39,0.00,,,0.00,WUHU216HW,2013-02-25 21:10:00,
2013-02-25 16:15:00,48.1,24.2,30.10,NE,45,1.8,1.8,39,0.00,,,0.00,WUHU216HW,2013-02-25 21:15:00,
2013-02-25 16:20:00,48.6,24.7,30.09,NNW,338,0.2,1.8,39,0.00,,,0.00,WUHU216HW,2013-02-25 21:20:00,
2013-02-25 16:25:00,48.8,24.9,30.10,East,90,2.2,2.2,39,0.00,,,0.00,WUHU216HW,2013-02-25 21:25:00,
2013-02-25 16:30:00,49.0,25.0,30.10,SE,135,1.6,2.7,39,0.00,,,0.00,WUHU216HW,2013-02-25 21:30:00,
2013-02-25 16:35:00,48.8,24.1,30.10,South,180,1.8,2.7,38,0.00,,,0.00,WUHU216HW,2013-02-25 21:35:00,
2013-02-25 16:40:00,48.2,24.4,30.10,SSW,203,0.0,1.8,39,0.00,,,0.00,WUHU216HW,2013-02-25 21:40:00,
2013-02-25 16:45:00,47.9,24.0,30.10,South,180,0.9,2.0,39,0.00,,,0.00,WUHU216HW,2013-02-25 21:45:00,
2013-02-25 16:50:00,47.2,22.7,30.10,ESE,113,1.1,4.0,38,0.00,,,0.00,WUHU216HW,2013-02-25 21:50:00,
2013-02-25 16:55:00,46.8,23.0,30.10,East,90,1.8,4.0,39,0.00,,,0.00,WUHU216HW,2013-02-25 21:55:00,
2013-02-25 17:00:00,46.4,22.8,30.10,SW,225,1.8,2.7,39,0.00,,,0.00,WUHU216HW,2013-02-25 22:00:00,
2013-02-25 17:05:00,45.9,23.0,30.10,SE,135,0.7,2.7,40,0.00,,,0.00,WUHU216HW,2013-02-25 22:05:00,
2013-02-25 17:10:00,45.7,22.8,30.10,ESE,113,2.2,2.2,40,0.00,,,0.00,WUHU216HW,2013-02-25 22:10:00,
2013-02-25 17:15:00,45.4,23.0,30.10,ESE,113,3.1,3.1,41,0.00,,,0.00,WUHU216HW,2013-02-25 22:15:00,
2013-02-25 17:20:00,45.0,22.7,30.10,SSE,158,0.2,3.1,41,0.00,,,0.00,WUHU216HW,2013-02-25 22:20:00,
2013-02-25 17:25:00,44.6,22.3,30.10,ESE,113,1.8,2.2,41,0.00,,,0.00,WUHU216HW,2013-02-25 22:25:00,
2013-02-25 17:30:00,44.3,22.0,30.10,ENE,68,0.0,2.2,41,0.00,,,0.00,WUHU216HW,2013-02-25 22:30:00,
2013-02-25 17:35:00,43.9,22.2,30.10,ESE,113,0.7,1.6,42,0.00,,,0.00,WUHU216HW,2013-02-25 22:35:00,
2013-02-25 17:40:00,43.7,22.1,30.10,ENE,68,0.0,1.1,42,0.00,,,0.00,WUHU216HW,2013-02-25 22:40:00,
2013-02-25 17:45:00,43.4,21.7,30.10,East,90,0.0,0.4,42,0.00,,,0.00,WUHU216HW,2013-02-25 22:45:00,
2013-02-25 17:50:00,43.2,21.6,30.10,East,90,0.0,0.4,42,0.00,,,0.00,WUHU216HW,2013-02-25 22:50:00,
2013-02-25 17:55:00,42.8,21.8,30.10,East,90,0.0,0.0,43,0.00,,,0.00,WUHU216HW,2013-02-25 22:55:00,
2013-02-25 18:00:00,42.5,21.4,30.11,East,90,0.0,0.0,43,0.00,,,0.00,WUHU216HW,2013-02-25 23:00:00,
2013-02-25 18:05:00,42.1,21.2,30.11,East,90,0.0,0.0,43,0.00,,,0.00,WUHU216HW,2013-02-25 23:05:00,
2013-02-25 18:10:00,41.8,20.8,30.11,East,90,0.0,0.0,43,0.00,,,0.00,WUHU216HW,2013-02-25 23:10:00,
2013-02-25 18:15:00,41.4,21.0,30.11,East,90,0.0,0.0,44,0.00,,,0.00,WUHU216HW,2013-02-25 23:15:00,
2013-02-25 18:20:00,41.0,20.6,30.11,East,90,0.0,0.0,44,0.00,,,0.00,WUHU216HW,2013-02-25 23:20:00,
2013-02-25 18:25:00,40.7,20.4,30.12,East,90,0.0,0.0,44,0.00,,,0.00,WUHU216HW,2013-02-25 23:25:00,
2013-02-25 18:30:00,40.1,20.3,30.12,East,90,0.0,0.0,45,0.00,,,0.00,WUHU216HW,2013-02-25 23:30:00,
2013-02-25 18:35:00,39.6,19.9,30.12,ESE,113,0.4,0.4,45,0.00,,,0.00,WUHU216HW,2013-02-25 23:35:00,
2013-02-25 18:40:00,39.2,19.5,30.12,ESE,113,0.0,0.4,45,0.00,,,0.00,WUHU216HW,2013-02-25 23:40:00,
2013-02-25 18:45:00,38.9,19.2,30.12,SE,135,0.4,0.4,45,0.00,,,0.00,WUHU216HW,2013-02-25 23:45:00,
2013-02-25 18:50:00,38.5,19.5,30.13,ESE,113,0.4,0.4,46,0.00,,,0.00,WUHU216HW,2013-02-25 23:50:00,
2013-02-25 18:55:00,38.0,18.9,30.13,SE,135,0.0,0.4,46,0.00,,,0.00,WUHU216HW,2013-02-25 23:55:00,
2013-02-25 19:00:00,37.8,18.7,30.13,ESE,113,0.0,0.2,46,0.00,,,0.00,WUHU216HW,2013-02-26 00:00:00,
2013-02-25 19:05:00,37.1,18.6,30.13,ESE,113,0.0,0.2,47,0.00,,,0.00,WUHU216HW,2013-02-26 00:05:00,
2013-02-25 19:10:00,36.9,18.5,30.13,ESE,113,0.0,0.0,47,0.00,,,0.00,WUHU216HW,2013-02-26 00:10:00,
2013-02-25 19:15:00,36.5,18.6,30.13,ESE,113,0.4,0.4,48,0.00,,,0.00,WUHU216HW,2013-02-26 00:15:00,
2013-02-25 19:20:00,36.4,18.6,30.13,ESE,113,0.0,0.4,48,0.00,,,0.00,WUHU216HW,2013-02-26 00:20:00,
2013-02-25 19:25:00,36.0,18.2,30.13,ESE,113,0.0,0.4,48,0.00,,,0.00,WUHU216HW,2013-02-26 00:25:00,
2013-02-25 19:30:00,35.6,18.4,30.13,ESE,113,0.0,0.0,49,0.00,,,0.00,WUHU216HW,2013-02-26 00:30:00,
2013-02-25 19:35:00,35.3,18.0,30.13,ESE,113,0.0,0.0,49,0.00,,,0.00,WUHU216HW,2013-02-26 00:35:00,
2013-02-25 19:40:00,34.9,18.2,30.13,ESE,113,0.0,0.0,50,0.00,,,0.00,WUHU216HW,2013-02-26 00:40:00,
2013-02-25 19:45:00,34.9,18.2,30.13,East,90,0.0,0.0,50,0.00,,,0.00,WUHU216HW,2013-02-26 00:45:00,
2013-02-25 19:50:00,34.7,18.0,30.13,East,90,0.0,0.0,50,0.00,,,0.00,WUHU216HW,2013-02-26 00:50:00,
2013-02-25 19:55:00,34.6,18.3,30.13,East,90,0.0,0.4,51,0.00,,,0.00,WUHU216HW,2013-02-26 00:55:00,
2013-02-25 20:00:00,34.2,17.9,30.13,East,90,0.0,0.4,51,0.00,,,0.00,WUHU216HW,2013-02-26 01:00:00,
2013-02-25 20:05:00,34.0,18.2,30.13,East,90,0.0,0.0,52,0.00,,,0.00,WUHU216HW,2013-02-26 01:05:00,
2013-02-25 20:10:00,33.7,18.3,30.14,East,90,0.0,0.0,53,0.00,,,0.00,WUHU216HW,2013-02-26 01:10:00,
2013-02-25 20:15:00,33.5,18.1,30.14,East,90,0.0,0.0,53,0.00,,,0.00,WUHU216HW,2013-02-26 01:15:00,
2013-02-25 20:20:00,33.3,17.9,30.14,East,90,0.0,0.0,53,0.00,,,0.00,WUHU216HW,2013-02-26 01:20:00,
2013-02-25 20:25:00,33.3,17.9,30.13,East,90,0.0,0.0,53,0.00,,,0.00,WUHU216HW,2013-02-26 01:25:00,
2013-02-25 20:30:00,33.1,18.2,30.13,East,90,0.0,0.0,54,0.00,,,0.00,WUHU216HW,2013-02-26 01:30:00,
2013-02-25 20:35:00,32.8,17.8,30.14,East,90,0.0,0.0,54,0.00,,,0.00,WUHU216HW,2013-02-26 01:35:00,
2013-02-25 20:41:00,32.6,17.7,30.14,SW,225,0.0,0.0,54,0.00,,,0.00,WUHU216HW,2013-02-26 01:41:00,
2013-02-25 20:46:00,32.6,18.1,30.13,SSW,203,0.0,1.1,55,0.00,,,0.00,WUHU216HW,2013-02-26 01:46:00,
2013-02-25 20:51:00,32.4,18.0,30.13,SSW,203,0.0,1.1,55,0.00,,,0.00,WUHU216HW,2013-02-26 01:51:00,
2013-02-25 20:56:00,32.2,17.8,30.13,SSW,203,0.0,0.0,55,0.00,,,0.00,WUHU216HW,2013-02-26 01:56:00,
2013-02-25 21:01:00,32.0,17.2,30.13,SSW,203,0.0,0.0,54,0.00,,,0.00,WUHU216HW,2013-02-26 02:01:00,
2013-02-25 21:06:00,31.9,17.0,30.13,SSW,203,0.0,0.0,54,0.00,,,0.00,WUHU216HW,2013-02-26 02:06:00,
2013-02-25 21:11:00,31.7,17.3,30.13,SSW,203,0.0,0.0,55,0.00,,,0.00,WUHU216HW,2013-02-26 02:11:00,
2013-02-25 21:16:00,31.3,16.9,30.13,SSW,203,0.0,0.0,55,0.00,,,0.00,WUHU216HW,2013-02-26 02:16:00,
2013-02-25 21:20:00,31.1,16.8,30.13,SSW,203,0.0,0.0,55,0.00,,,0.00,WUHU216HW,2013-02-26 02:20:00,
2013-02-25 21:25:00,31.0,17.5,30.12,SSW,203,0.0,0.0,57,0.00,,,0.00,WUHU216HW,2013-02-26 02:25:00,
2013-02-25 21:30:00,30.6,17.1,30.13,SSW,203,0.0,0.0,57,0.00,,,0.00,WUHU216HW,2013-02-26 02:30:00,
2013-02-25 21:35:00,30.6,17.9,30.13,SSW,203,0.0,0.0,59,0.00,,,0.00,WUHU216HW,2013-02-26 02:35:00,
2013-02-25 21:40:00,30.4,17.4,30.13,SW,225,0.0,0.0,58,0.00,,,0.00,WUHU216HW,2013-02-26 02:40:00,
2013-02-25 21:45:00,30.2,17.2,30.13,SW,225,0.0,0.0,58,0.00,,,0.00,WUHU216HW,2013-02-26 02:45:00,
2013-02-25 21:51:00,30.1,17.5,30.13,SW,225,0.0,0.0,59,0.00,,,0.00,WUHU216HW,2013-02-26 02:51:00,
2013-02-25 21:56:00,29.9,17.3,30.13,SW,225,0.0,0.0,59,0.00,,,0.00,WUHU216HW,2013-02-26 02:56:00,
2013-02-25 22:00:00,29.9,17.3,30.13,SW,225,0.0,0.0,59,0.00,,,0.00,WUHU216HW,2013-02-26 03:00:00,
2013-02-25 22:06:00,29.9,17.3,30.13,SW,225,0.0,0.0,59,0.00,,,0.00,WUHU216HW,2013-02-26 03:06:00,
2013-02-25 22:11:00,29.7,17.1,30.13,SW,225,0.0,0.0,59,0.00,,,0.00,WUHU216HW,2013-02-26 03:11:00,
2013-02-25 22:16:00,29.5,16.9,30.13,SW,225,0.0,0.0,59,0.00,,,0.00,WUHU216HW,2013-02-26 03:16:00,
2013-02-25 22:21:00,29.3,16.7,30.13,SW,225,0.0,0.0,59,0.00,,,0.00,WUHU216HW,2013-02-26 03:21:00,
2013-02-25 22:26:00,29.3,16.7,30.12,SSE,158,0.0,0.0,59,0.00,,,0.00,WUHU216HW,2013-02-26 03:26:00,
2013-02-25 22:31:00,29.2,17.0,30.12,SSE,158,0.0,0.0,60,0.00,,,0.00,WUHU216HW,2013-02-26 03:31:00,
2013-02-25 22:36:00,29.2,17.0,30.11,SSE,158,0.0,0.0,60,0.00,,,0.00,WUHU216HW,2013-02-26 03:36:00,
2013-02-25 22:41:00,29.0,17.2,30.11,SSE,158,0.0,0.0,61,0.00,,,0.00,WUHU216HW,2013-02-26 03:41:00,
2013-02-25 22:46:00,28.6,17.3,30.11,SSE,158,0.0,0.0,62,0.00,,,0.00,WUHU216HW,2013-02-26 03:46:00,
2013-02-25 22:51:00,28.6,17.3,30.12,West,270,0.7,0.7,62,0.00,,,0.00,WUHU216HW,2013-02-26 03:51:00,
2013-02-25 22:56:00,28.4,17.1,30.13,West,270,0.0,0.7,62,0.00,,,0.00,WUHU216HW,2013-02-26 03:56:00,
2013-02-25 23:01:00,28.3,16.9,30.13,West,270,0.0,0.7,62,0.00,,,0.00,WUHU216HW,2013-02-26 04:01:00,
2013-02-25 23:06:00,28.3,16.9,30.13,West,270,0.0,0.0,62,0.00,,,0.00,WUHU216HW,2013-02-26 04:06:00,
2013-02-25 23:11:00,28.3,16.9,30.13,West,270,0.0,0.0,62,0.00,,,0.00,WUHU216HW,2013-02-26 04:11:00,
2013-02-25 23:16:00,28.1,16.7,30.13,West,270,0.0,0.0,62,0.00,,,0.00,WUHU216HW,2013-02-26 04:16:00,
2013-02-25 23:21:00,27.9,16.6,30.12,West,270,0.0,0.0,62,0.00,,,0.00,WUHU216HW,2013-02-26 04:21:00,
2013-02-25 23:26:00,27.9,16.6,30.13,West,270,0.0,0.0,62,0.00,,,0.00,WUHU216HW,2013-02-26 04:26:00,
2013-02-25 23:31:00,27.9,16.6,30.12,WNW,293,0.0,0.0,62,0.00,,,0.00,WUHU216HW,2013-02-26 04:31:00,
2013-02-25 23:36:00,27.7,16.4,30.11,ENE,68,0.0,0.4,62,0.00,,,0.00,WUHU216HW,2013-02-26 04:36:00,
2013-02-25 23:41:00,27.7,16.4,30.12,ENE,68,0.0,0.4,62,0.00,,,0.00,WUHU216HW,2013-02-26 04:41:00,
2013-02-25 23:46:00,27.5,16.6,30.12,ENE,68,0.0,0.0,63,0.00,,,0.00,WUHU216HW,2013-02-26 04:46:00,
2013-02-25 23:51:00,27.4,16.4,30.12,ENE,68,0.0,0.0,63,0.00,,,0.00,WUHU216HW,2013-02-26 04:51:00,
2013-02-25 23:56:00,27.4,16.4,30.13,ENE,68,0.0,0.0,63,0.00,,,0.00,WUHU216HW,2013-02-26 04:56:00,